< < Back
Terminal Aerodrome Forecast


Current Version              Previous Versions:   1  2  3  4  5  6  7  8  9  

Terminal Aerodrome Forecast

924
FTUS42 KGSP 291120
TAFAVL
TAF
KAVL 291120Z 2912/3012 VRB03KT P6SM FEW040 SCT250
     FM291500 21006KT P6SM FEW040 SCT220
     FM300400 VRB03KT P6SM FEW040 SCT210
     FM300900 VRB03KT P6SM FEW040 SCT060=



Latest METAR

008
SAUS70 KWBC 301200 RRC
MTRAVL
METAR KAVL 301154Z 34011KT 10SM BKN110 20/16 A3007 RMK AO2 LTG DSNT NW
SLP156 T02000156 10211 20178 53020


USA.gov is the U.S. government's official web portal to all federal, state and local government web resources and services.